sensor_id;sensor_type;location;lat;lon;timestamp;P1;durP1;ratioP1;P2;durP2;ratioP2
5014;SDS011;2526;51.060;4.228;2022-09-21T00:01:47;3.42;;;2.85;;
5014;SDS011;2526;51.060;4.228;2022-09-21T00:04:16;4.15;;;2.85;;
5014;SDS011;2526;51.060;4.228;2022-09-21T00:06:42;4.32;;;2.75;;
5014;SDS011;2526;51.060;4.228;2022-09-21T00:09:07;2.38;;;2.17;;
5014;SDS011;2526;51.060;4.228;2022-09-21T00:11:34;3.03;;;2.38;;
5014;SDS011;2526;51.060;4.228;2022-09-21T00:14:02;6.35;;;3.25;;
5014;SDS011;2526;51.060;4.228;2022-09-21T00:16:28;3.47;;;2.40;;
5014;SDS011;2526;51.060;4.228;2022-09-21T00:18:55;4.25;;;2.35;;
5014;SDS011;2526;51.060;4.228;2022-09-21T00:21:21;9.40;;;2.55;;
5014;SDS011;2526;51.060;4.228;2022-09-21T00:23:48;3.67;;;3.03;;
5014;SDS011;2526;51.060;4.228;2022-09-21T00:26:18;4.95;;;3.15;;
5014;SDS011;2526;51.060;4.228;2022-09-21T00:28:44;3.38;;;2.22;;
5014;SDS011;2526;51.060;4.228;2022-09-21T00:31:10;2.88;;;2.22;;
5014;SDS011;2526;51.060;4.228;2022-09-21T00:33:37;2.58;;;1.92;;
5014;SDS011;2526;51.060;4.228;2022-09-21T00:36:06;5.10;;;2.00;;
5014;SDS011;2526;51.060;4.228;2022-09-21T00:38:32;5.75;;;2.88;;
5014;SDS011;2526;51.060;4.228;2022-09-21T00:40:58;4.95;;;3.22;;
5014;SDS011;2526;51.060;4.228;2022-09-21T00:43:24;3.22;;;2.20;;
5014;SDS011;2526;51.060;4.228;2022-09-21T00:45:50;7.93;;;2.83;;
5014;SDS011;2526;51.060;4.228;2022-09-21T00:48:18;4.20;;;1.33;;
5014;SDS011;2526;51.060;4.228;2022-09-21T00:50:45;2.97;;;2.00;;
5014;SDS011;2526;51.060;4.228;2022-09-21T00:53:13;5.15;;;2.28;;
5014;SDS011;2526;51.060;4.228;2022-09-21T00:55:41;2.15;;;1.92;;
5014;SDS011;2526;51.060;4.228;2022-09-21T00:58:09;6.45;;;2.63;;
5014;SDS011;2526;51.060;4.228;2022-09-21T01:00:36;5.38;;;2.80;;
5014;SDS011;2526;51.060;4.228;2022-09-21T01:03:02;2.78;;;2.40;;
5014;SDS011;2526;51.060;4.228;2022-09-21T01:05:29;4.72;;;2.92;;
5014;SDS011;2526;51.060;4.228;2022-09-21T01:07:55;6.55;;;2.35;;
5014;SDS011;2526;51.060;4.228;2022-09-21T01:10:21;8.10;;;2.88;;
5014;SDS011;2526;51.060;4.228;2022-09-21T01:20:41;6.07;;;3.22;;
5014;SDS011;2526;51.060;4.228;2022-09-21T01:25:56;6.35;;;3.20;;
5014;SDS011;2526;51.060;4.228;2022-09-21T01:31:10;3.10;;;2.80;;
5014;SDS011;2526;51.060;4.228;2022-09-21T01:33:38;5.13;;;3.85;;
5014;SDS011;2526;51.060;4.228;2022-09-21T01:36:08;3.65;;;2.45;;
5014;SDS011;2526;51.060;4.228;2022-09-21T01:38:36;9.05;;;4.10;;
5014;SDS011;2526;51.060;4.228;2022-09-21T01:41:03;6.63;;;3.30;;
5014;SDS011;2526;51.060;4.228;2022-09-21T01:43:30;13.00;;;3.40;;
5014;SDS011;2526;51.060;4.228;2022-09-21T01:45:57;7.53;;;3.80;;
5014;SDS011;2526;51.060;4.228;2022-09-21T01:48:26;6.68;;;3.08;;
5014;SDS011;2526;51.060;4.228;2022-09-21T01:50:55;5.45;;;3.20;;
5014;SDS011;2526;51.060;4.228;2022-09-21T01:55:57;4.13;;;3.25;;
5014;SDS011;2526;51.060;4.228;2022-09-21T01:58:29;4.70;;;3.00;;
5014;SDS011;2526;51.060;4.228;2022-09-21T02:00:57;3.90;;;2.53;;
5014;SDS011;2526;51.060;4.228;2022-09-21T02:05:48;7.18;;;3.85;;
5014;SDS011;2526;51.060;4.228;2022-09-21T02:08:14;5.68;;;3.50;;
5014;SDS011;2526;51.060;4.228;2022-09-21T02:10:49;29.02;;;4.85;;
5014;SDS011;2526;51.060;4.228;2022-09-21T02:13:16;38.30;;;6.40;;
5014;SDS011;2526;51.060;4.228;2022-09-21T02:21:13;5.40;;;4.22;;
5014;SDS011;2526;51.060;4.228;2022-09-21T02:23:52;4.95;;;3.30;;
5014;SDS011;2526;51.060;4.228;2022-09-21T02:26:25;3.67;;;2.65;;
5014;SDS011;2526;51.060;4.228;2022-09-21T02:28:55;4.65;;;3.40;;
5014;SDS011;2526;51.060;4.228;2022-09-21T02:31:25;4.57;;;3.30;;
5014;SDS011;2526;51.060;4.228;2022-09-21T02:33:58;6.10;;;3.25;;
5014;SDS011;2526;51.060;4.228;2022-09-21T02:36:27;5.60;;;3.45;;
5014;SDS011;2526;51.060;4.228;2022-09-21T02:39:15;5.45;;;4.03;;
5014;SDS011;2526;51.060;4.228;2022-09-21T02:44:17;7.93;;;4.50;;
5014;SDS011;2526;51.060;4.228;2022-09-21T02:49:12;8.13;;;4.22;;
5014;SDS011;2526;51.060;4.228;2022-09-21T02:51:44;5.43;;;4.10;;
5014;SDS011;2526;51.060;4.228;2022-09-21T02:54:15;6.00;;;3.08;;
5014;SDS011;2526;51.060;4.228;2022-09-21T02:56:41;6.28;;;3.80;;
5014;SDS011;2526;51.060;4.228;2022-09-21T02:59:08;6.45;;;3.90;;
5014;SDS011;2526;51.060;4.228;2022-09-21T03:01:34;4.28;;;3.10;;
5014;SDS011;2526;51.060;4.228;2022-09-21T03:04:00;5.45;;;3.38;;
5014;SDS011;2526;51.060;4.228;2022-09-21T03:06:26;4.68;;;3.30;;
5014;SDS011;2526;51.060;4.228;2022-09-21T03:08:52;5.18;;;3.70;;
5014;SDS011;2526;51.060;4.228;2022-09-21T03:11:18;4.10;;;2.85;;
5014;SDS011;2526;51.060;4.228;2022-09-21T03:13:43;6.00;;;4.57;;
5014;SDS011;2526;51.060;4.228;2022-09-21T03:16:09;7.68;;;2.97;;
5014;SDS011;2526;51.060;4.228;2022-09-21T03:18:34;5.75;;;3.95;;
5014;SDS011;2526;51.060;4.228;2022-09-21T03:21:00;10.80;;;4.95;;
5014;SDS011;2526;51.060;4.228;2022-09-21T03:23:26;30.35;;;6.72;;
5014;SDS011;2526;51.060;4.228;2022-09-21T03:25:52;5.68;;;4.45;;
5014;SDS011;2526;51.060;4.228;2022-09-21T03:28:18;7.15;;;4.35;;
5014;SDS011;2526;51.060;4.228;2022-09-21T03:30:44;6.80;;;3.80;;
5014;SDS011;2526;51.060;4.228;2022-09-21T03:33:10;10.82;;;5.55;;
5014;SDS011;2526;51.060;4.228;2022-09-21T03:35:37;10.23;;;5.07;;
5014;SDS011;2526;51.060;4.228;2022-09-21T03:38:03;4.30;;;3.83;;
5014;SDS011;2526;51.060;4.228;2022-09-21T03:40:28;7.80;;;5.03;;
5014;SDS011;2526;51.060;4.228;2022-09-21T03:42:54;10.48;;;4.88;;
5014;SDS011;2526;51.060;4.228;2022-09-21T03:45:20;6.55;;;4.78;;
5014;SDS011;2526;51.060;4.228;2022-09-21T03:47:46;5.82;;;3.97;;
5014;SDS011;2526;51.060;4.228;2022-09-21T03:50:12;5.47;;;3.42;;
5014;SDS011;2526;51.060;4.228;2022-09-21T03:52:37;5.28;;;4.18;;
5014;SDS011;2526;51.060;4.228;2022-09-21T03:55:04;6.82;;;4.45;;
5014;SDS011;2526;51.060;4.228;2022-09-21T03:57:31;4.28;;;3.10;;
5014;SDS011;2526;51.060;4.228;2022-09-21T03:59:56;6.63;;;3.83;;
5014;SDS011;2526;51.060;4.228;2022-09-21T04:02:22;5.13;;;3.28;;
5014;SDS011;2526;51.060;4.228;2022-09-21T04:04:47;4.63;;;3.78;;
5014;SDS011;2526;51.060;4.228;2022-09-21T04:07:13;25.30;;;6.47;;
5014;SDS011;2526;51.060;4.228;2022-09-21T04:09:39;4.13;;;2.58;;
5014;SDS011;2526;51.060;4.228;2022-09-21T04:12:06;8.57;;;4.68;;
5014;SDS011;2526;51.060;4.228;2022-09-21T04:14:31;6.38;;;4.07;;
5014;SDS011;2526;51.060;4.228;2022-09-21T04:16:57;7.63;;;3.78;;
5014;SDS011;2526;51.060;4.228;2022-09-21T04:19:23;6.10;;;3.67;;
5014;SDS011;2526;51.060;4.228;2022-09-21T04:21:49;6.35;;;5.00;;
5014;SDS011;2526;51.060;4.228;2022-09-21T04:24:16;6.97;;;5.07;;
5014;SDS011;2526;51.060;4.228;2022-09-21T04:26:43;6.07;;;3.40;;
5014;SDS011;2526;51.060;4.228;2022-09-21T04:29:09;8.07;;;4.40;;
5014;SDS011;2526;51.060;4.228;2022-09-21T04:31:35;17.13;;;6.30;;
5014;SDS011;2526;51.060;4.228;2022-09-21T04:34:00;8.82;;;5.25;;
5014;SDS011;2526;51.060;4.228;2022-09-21T04:36:26;6.43;;;4.75;;
5014;SDS011;2526;51.060;4.228;2022-09-21T04:38:52;8.77;;;5.30;;
5014;SDS011;2526;51.060;4.228;2022-09-21T04:41:17;9.52;;;4.68;;
5014;SDS011;2526;51.060;4.228;2022-09-21T04:43:44;10.18;;;4.20;;
5014;SDS011;2526;51.060;4.228;2022-09-21T04:46:11;4.90;;;2.88;;
5014;SDS011;2526;51.060;4.228;2022-09-21T04:48:37;11.48;;;5.00;;
5014;SDS011;2526;51.060;4.228;2022-09-21T04:51:02;60.03;;;7.20;;
5014;SDS011;2526;51.060;4.228;2022-09-21T04:53:28;10.15;;;5.10;;
5014;SDS011;2526;51.060;4.228;2022-09-21T04:55:54;7.95;;;5.50;;
5014;SDS011;2526;51.060;4.228;2022-09-21T04:58:20;7.85;;;5.07;;
5014;SDS011;2526;51.060;4.228;2022-09-21T05:00:49;7.28;;;5.35;;
5014;SDS011;2526;51.060;4.228;2022-09-21T05:03:15;9.18;;;5.03;;
5014;SDS011;2526;51.060;4.228;2022-09-21T05:05:45;7.20;;;4.13;;
5014;SDS011;2526;51.060;4.228;2022-09-21T05:08:10;8.77;;;5.28;;
5014;SDS011;2526;51.060;4.228;2022-09-21T05:10:36;7.53;;;4.22;;
5014;SDS011;2526;51.060;4.228;2022-09-21T05:13:01;6.80;;;5.78;;
5014;SDS011;2526;51.060;4.228;2022-09-21T05:15:27;6.03;;;4.38;;
5014;SDS011;2526;51.060;4.228;2022-09-21T05:17:52;6.10;;;4.35;;
5014;SDS011;2526;51.060;4.228;2022-09-21T05:20:18;5.15;;;3.88;;
5014;SDS011;2526;51.060;4.228;2022-09-21T05:22:43;6.55;;;4.35;;
5014;SDS011;2526;51.060;4.228;2022-09-21T05:25:09;7.95;;;5.47;;
5014;SDS011;2526;51.060;4.228;2022-09-21T05:27:34;6.43;;;4.25;;
5014;SDS011;2526;51.060;4.228;2022-09-21T05:30:00;16.88;;;4.93;;
5014;SDS011;2526;51.060;4.228;2022-09-21T05:40:08;5.95;;;4.75;;
5014;SDS011;2526;51.060;4.228;2022-09-21T05:42:34;6.90;;;4.30;;
5014;SDS011;2526;51.060;4.228;2022-09-21T05:45:00;6.78;;;3.88;;
5014;SDS011;2526;51.060;4.228;2022-09-21T05:47:39;7.53;;;4.80;;
5014;SDS011;2526;51.060;4.228;2022-09-21T05:58:00;6.95;;;5.10;;
5014;SDS011;2526;51.060;4.228;2022-09-21T06:00:32;5.05;;;4.40;;
5014;SDS011;2526;51.060;4.228;2022-09-21T06:03:25;13.43;;;4.40;;
5014;SDS011;2526;51.060;4.228;2022-09-21T06:05:47;7.50;;;3.88;;
5014;SDS011;2526;51.060;4.228;2022-09-21T06:08:12;6.93;;;4.63;;
5014;SDS011;2526;51.060;4.228;2022-09-21T06:10:37;10.55;;;6.03;;
5014;SDS011;2526;51.060;4.228;2022-09-21T06:13:03;14.82;;;5.70;;
5014;SDS011;2526;51.060;4.228;2022-09-21T06:15:28;8.48;;;4.63;;
5014;SDS011;2526;51.060;4.228;2022-09-21T06:17:54;8.32;;;4.75;;
5014;SDS011;2526;51.060;4.228;2022-09-21T06:20:19;6.88;;;4.65;;
5014;SDS011;2526;51.060;4.228;2022-09-21T06:22:45;7.47;;;5.40;;
5014;SDS011;2526;51.060;4.228;2022-09-21T06:25:10;6.05;;;3.85;;
5014;SDS011;2526;51.060;4.228;2022-09-21T06:27:36;6.20;;;4.30;;
5014;SDS011;2526;51.060;4.228;2022-09-21T06:30:01;14.63;;;4.70;;
5014;SDS011;2526;51.060;4.228;2022-09-21T06:32:28;7.68;;;4.72;;
5014;SDS011;2526;51.060;4.228;2022-09-21T06:34:55;6.07;;;4.18;;
5014;SDS011;2526;51.060;4.228;2022-09-21T06:37:20;6.97;;;4.90;;
5014;SDS011;2526;51.060;4.228;2022-09-21T06:39:45;10.23;;;4.75;;
5014;SDS011;2526;51.060;4.228;2022-09-21T06:42:11;9.93;;;5.05;;
5014;SDS011;2526;51.060;4.228;2022-09-21T06:44:36;10.10;;;4.60;;
5014;SDS011;2526;51.060;4.228;2022-09-21T06:47:02;8.10;;;4.80;;
5014;SDS011;2526;51.060;4.228;2022-09-21T06:49:27;6.32;;;4.50;;
5014;SDS011;2526;51.060;4.228;2022-09-21T06:51:53;6.38;;;4.43;;
5014;SDS011;2526;51.060;4.228;2022-09-21T06:54:19;7.50;;;3.45;;
5014;SDS011;2526;51.060;4.228;2022-09-21T06:56:44;8.70;;;4.53;;
5014;SDS011;2526;51.060;4.228;2022-09-21T06:59:10;5.15;;;4.05;;
5014;SDS011;2526;51.060;4.228;2022-09-21T07:01:35;6.82;;;5.03;;
5014;SDS011;2526;51.060;4.228;2022-09-21T07:04:01;9.25;;;4.43;;
5014;SDS011;2526;51.060;4.228;2022-09-21T07:06:26;8.00;;;4.20;;
5014;SDS011;2526;51.060;4.228;2022-09-21T07:08:53;6.97;;;5.75;;
5014;SDS011;2526;51.060;4.228;2022-09-21T07:11:19;8.18;;;5.40;;
5014;SDS011;2526;51.060;4.228;2022-09-21T07:13:45;12.35;;;6.50;;
5014;SDS011;2526;51.060;4.228;2022-09-21T07:16:10;6.72;;;3.42;;
5014;SDS011;2526;51.060;4.228;2022-09-21T07:18:37;4.78;;;4.15;;
5014;SDS011;2526;51.060;4.228;2022-09-21T07:21:04;6.10;;;4.70;;
5014;SDS011;2526;51.060;4.228;2022-09-21T07:23:30;11.23;;;6.10;;
5014;SDS011;2526;51.060;4.228;2022-09-21T07:25:59;16.83;;;5.97;;
5014;SDS011;2526;51.060;4.228;2022-09-21T07:28:24;7.10;;;5.22;;
5014;SDS011;2526;51.060;4.228;2022-09-21T07:30:50;4.68;;;4.13;;
5014;SDS011;2526;51.060;4.228;2022-09-21T07:33:15;10.30;;;7.22;;
5014;SDS011;2526;51.060;4.228;2022-09-21T07:35:49;12.07;;;7.38;;
5014;SDS011;2526;51.060;4.228;2022-09-21T07:38:14;11.45;;;6.70;;
5014;SDS011;2526;51.060;4.228;2022-09-21T07:40:40;12.45;;;7.05;;
5014;SDS011;2526;51.060;4.228;2022-09-21T07:43:05;9.20;;;7.13;;
5014;SDS011;2526;51.060;4.228;2022-09-21T07:45:31;13.25;;;9.40;;
5014;SDS011;2526;51.060;4.228;2022-09-21T07:48:06;16.52;;;9.13;;
5014;SDS011;2526;51.060;4.228;2022-09-21T07:50:33;13.32;;;8.07;;
5014;SDS011;2526;51.060;4.228;2022-09-21T07:52:59;14.65;;;10.93;;
5014;SDS011;2526;51.060;4.228;2022-09-21T07:55:25;16.98;;;8.77;;
5014;SDS011;2526;51.060;4.228;2022-09-21T07:57:50;16.58;;;11.63;;
5014;SDS011;2526;51.060;4.228;2022-09-21T08:00:45;17.00;;;10.75;;
5014;SDS011;2526;51.060;4.228;2022-09-21T08:03:10;14.35;;;10.82;;
5014;SDS011;2526;51.060;4.228;2022-09-21T08:05:36;12.27;;;10.02;;
5014;SDS011;2526;51.060;4.228;2022-09-21T08:08:02;12.85;;;10.75;;
5014;SDS011;2526;51.060;4.228;2022-09-21T08:10:28;19.40;;;12.00;;
5014;SDS011;2526;51.060;4.228;2022-09-21T08:12:55;18.73;;;12.68;;
5014;SDS011;2526;51.060;4.228;2022-09-21T08:15:20;19.88;;;9.63;;
5014;SDS011;2526;51.060;4.228;2022-09-21T08:17:46;13.60;;;11.32;;
5014;SDS011;2526;51.060;4.228;2022-09-21T08:20:11;11.93;;;8.57;;
5014;SDS011;2526;51.060;4.228;2022-09-21T08:22:38;14.80;;;10.85;;
5014;SDS011;2526;51.060;4.228;2022-09-21T08:25:04;13.45;;;9.98;;
5014;SDS011;2526;51.060;4.228;2022-09-21T08:27:30;17.05;;;9.55;;
5014;SDS011;2526;51.060;4.228;2022-09-21T08:29:55;14.60;;;9.70;;
5014;SDS011;2526;51.060;4.228;2022-09-21T08:32:21;16.88;;;10.07;;
5014;SDS011;2526;51.060;4.228;2022-09-21T08:34:47;21.17;;;13.30;;
5014;SDS011;2526;51.060;4.228;2022-09-21T08:37:14;23.20;;;9.85;;
5014;SDS011;2526;51.060;4.228;2022-09-21T08:39:39;9.95;;;7.35;;
5014;SDS011;2526;51.060;4.228;2022-09-21T08:44:53;12.10;;;8.18;;
5014;SDS011;2526;51.060;4.228;2022-09-21T08:47:35;12.10;;;7.93;;
5014;SDS011;2526;51.060;4.228;2022-09-21T08:50:02;20.63;;;9.85;;
5014;SDS011;2526;51.060;4.228;2022-09-21T08:52:28;11.73;;;7.82;;
5014;SDS011;2526;51.060;4.228;2022-09-21T08:54:56;15.60;;;7.03;;
5014;SDS011;2526;51.060;4.228;2022-09-21T08:57:25;16.42;;;7.25;;
5014;SDS011;2526;51.060;4.228;2022-09-21T08:59:53;12.88;;;7.75;;
5014;SDS011;2526;51.060;4.228;2022-09-21T09:05:11;16.85;;;9.20;;
5014;SDS011;2526;51.060;4.228;2022-09-21T09:08:02;10.60;;;6.70;;
5014;SDS011;2526;51.060;4.228;2022-09-21T09:10:53;10.60;;;5.82;;
5014;SDS011;2526;51.060;4.228;2022-09-21T09:16:23;8.27;;;4.82;;
5014;SDS011;2526;51.060;4.228;2022-09-21T09:21:25;7.47;;;4.30;;
5014;SDS011;2526;51.060;4.228;2022-09-21T09:26:41;6.88;;;3.63;;
5014;SDS011;2526;51.060;4.228;2022-09-21T09:31:52;3.38;;;2.47;;
5014;SDS011;2526;51.060;4.228;2022-09-21T09:36:46;4.40;;;2.80;;
5014;SDS011;2526;51.060;4.228;2022-09-21T09:39:14;5.03;;;3.47;;
5014;SDS011;2526;51.060;4.228;2022-09-21T09:49:29;4.03;;;2.17;;
5014;SDS011;2526;51.060;4.228;2022-09-21T09:51:57;2.95;;;2.10;;
5014;SDS011;2526;51.060;4.228;2022-09-21T09:54:24;11.65;;;2.60;;
5014;SDS011;2526;51.060;4.228;2022-09-21T09:56:50;6.25;;;2.10;;
5014;SDS011;2526;51.060;4.228;2022-09-21T09:59:22;3.38;;;2.00;;
5014;SDS011;2526;51.060;4.228;2022-09-21T10:02:25;10.52;;;2.03;;
5014;SDS011;2526;51.060;4.228;2022-09-21T10:07:18;9.57;;;4.75;;
5014;SDS011;2526;51.060;4.228;2022-09-21T10:09:43;3.88;;;1.77;;
5014;SDS011;2526;51.060;4.228;2022-09-21T10:12:21;6.15;;;1.58;;
5014;SDS011;2526;51.060;4.228;2022-09-21T10:14:48;7.10;;;2.25;;
5014;SDS011;2526;51.060;4.228;2022-09-21T10:17:15;11.18;;;1.08;;
5014;SDS011;2526;51.060;4.228;2022-09-21T10:19:41;2.80;;;1.50;;
5014;SDS011;2526;51.060;4.228;2022-09-21T10:22:12;3.03;;;1.38;;
5014;SDS011;2526;51.060;4.228;2022-09-21T10:24:39;3.50;;;1.10;;
5014;SDS011;2526;51.060;4.228;2022-09-21T10:27:14;0.85;;;0.80;;
5014;SDS011;2526;51.060;4.228;2022-09-21T10:29:44;3.30;;;1.08;;
5014;SDS011;2526;51.060;4.228;2022-09-21T10:34:41;2.78;;;0.93;;
5014;SDS011;2526;51.060;4.228;2022-09-21T10:39:52;1.08;;;0.73;;
5014;SDS011;2526;51.060;4.228;2022-09-21T10:42:18;1.90;;;0.90;;
5014;SDS011;2526;51.060;4.228;2022-09-21T10:44:45;1.70;;;0.82;;
5014;SDS011;2526;51.060;4.228;2022-09-21T10:49:43;4.15;;;0.70;;
5014;SDS011;2526;51.060;4.228;2022-09-21T10:52:09;4.75;;;1.95;;
5014;SDS011;2526;51.060;4.228;2022-09-21T10:54:34;1.23;;;0.80;;
5014;SDS011;2526;51.060;4.228;2022-09-21T10:57:06;2.45;;;0.88;;
5014;SDS011;2526;51.060;4.228;2022-09-21T10:59:32;4.57;;;0.82;;
5014;SDS011;2526;51.060;4.228;2022-09-21T11:01:59;8.20;;;1.98;;
5014;SDS011;2526;51.060;4.228;2022-09-21T11:07:00;2.60;;;1.48;;
5014;SDS011;2526;51.060;4.228;2022-09-21T11:09:35;3.53;;;1.25;;
5014;SDS011;2526;51.060;4.228;2022-09-21T11:12:05;4.80;;;1.17;;
5014;SDS011;2526;51.060;4.228;2022-09-21T11:14:34;6.07;;;1.05;;
5014;SDS011;2526;51.060;4.228;2022-09-21T11:19:53;2.60;;;0.52;;
5014;SDS011;2526;51.060;4.228;2022-09-21T11:22:23;3.53;;;0.73;;
5014;SDS011;2526;51.060;4.228;2022-09-21T11:27:19;0.88;;;0.70;;
5014;SDS011;2526;51.060;4.228;2022-09-21T11:42:47;0.85;;;0.68;;
5014;SDS011;2526;51.060;4.228;2022-09-21T11:45:07;1.98;;;0.80;;
5014;SDS011;2526;51.060;4.228;2022-09-21T11:58:11;3.40;;;0.65;;
5014;SDS011;2526;51.060;4.228;2022-09-21T12:16:37;0.10;;;0.10;;
5014;SDS011;2526;51.060;4.228;2022-09-21T12:21:50;9.02;;;0.63;;
5014;SDS011;2526;51.060;4.228;2022-09-21T12:24:19;1.42;;;0.70;;
5014;SDS011;2526;51.060;4.228;2022-09-21T12:26:48;6.00;;;0.40;;
5014;SDS011;2526;51.060;4.228;2022-09-21T12:29:25;0.40;;;0.20;;
5014;SDS011;2526;51.060;4.228;2022-09-21T12:34:19;2.50;;;0.65;;
5014;SDS011;2526;51.060;4.228;2022-09-21T12:39:37;0.65;;;0.38;;
5014;SDS011;2526;51.060;4.228;2022-09-21T12:42:04;1.42;;;0.50;;
5014;SDS011;2526;51.060;4.228;2022-09-21T12:50:28;0.63;;;0.50;;
5014;SDS011;2526;51.060;4.228;2022-09-21T12:52:51;0.60;;;0.30;;
5014;SDS011;2526;51.060;4.228;2022-09-21T12:55:22;6.72;;;1.00;;
5014;SDS011;2526;51.060;4.228;2022-09-21T12:57:56;0.60;;;0.35;;
5014;SDS011;2526;51.060;4.228;2022-09-21T13:00:23;0.70;;;0.63;;
5014;SDS011;2526;51.060;4.228;2022-09-21T13:02:57;2.15;;;0.65;;
5014;SDS011;2526;51.060;4.228;2022-09-21T13:10:34;1.85;;;0.80;;
5014;SDS011;2526;51.060;4.228;2022-09-21T13:13:04;1.75;;;0.68;;
5014;SDS011;2526;51.060;4.228;2022-09-21T13:15:40;1.30;;;0.75;;
5014;SDS011;2526;51.060;4.228;2022-09-21T13:18:14;0.25;;;0.13;;
5014;SDS011;2526;51.060;4.228;2022-09-21T13:20:42;5.95;;;0.75;;
5014;SDS011;2526;51.060;4.228;2022-09-21T13:23:19;1.52;;;0.63;;
5014;SDS011;2526;51.060;4.228;2022-09-21T13:25:47;8.98;;;0.65;;
5014;SDS011;2526;51.060;4.228;2022-09-21T13:40:55;6.28;;;0.52;;
5014;SDS011;2526;51.060;4.228;2022-09-21T13:43:22;1.15;;;0.60;;
5014;SDS011;2526;51.060;4.228;2022-09-21T13:45:50;1.25;;;0.35;;
5014;SDS011;2526;51.060;4.228;2022-09-21T13:48:17;1.40;;;0.80;;
5014;SDS011;2526;51.060;4.228;2022-09-21T13:50:45;1.20;;;0.47;;
5014;SDS011;2526;51.060;4.228;2022-09-21T13:53:33;0.65;;;0.52;;
5014;SDS011;2526;51.060;4.228;2022-09-21T13:56:01;3.53;;;0.50;;
5014;SDS011;2526;51.060;4.228;2022-09-21T13:58:33;7.43;;;0.88;;
5014;SDS011;2526;51.060;4.228;2022-09-21T14:01:02;2.65;;;1.35;;
5014;SDS011;2526;51.060;4.228;2022-09-21T14:06:01;0.60;;;0.50;;
5014;SDS011;2526;51.060;4.228;2022-09-21T14:08:37;4.88;;;0.98;;
5014;SDS011;2526;51.060;4.228;2022-09-21T14:11:04;0.50;;;0.38;;
5014;SDS011;2526;51.060;4.228;2022-09-21T14:13:38;1.65;;;0.52;;
5014;SDS011;2526;51.060;4.228;2022-09-21T14:16:54;4.15;;;0.95;;
5014;SDS011;2526;51.060;4.228;2022-09-21T14:18:58;3.00;;;1.00;;
5014;SDS011;2526;51.060;4.228;2022-09-21T14:21:24;1.25;;;0.30;;
5014;SDS011;2526;51.060;4.228;2022-09-21T14:28:55;1.95;;;0.80;;
5014;SDS011;2526;51.060;4.228;2022-09-21T14:31:27;3.50;;;0.63;;
5014;SDS011;2526;51.060;4.228;2022-09-21T14:33:54;0.90;;;0.22;;
5014;SDS011;2526;51.060;4.228;2022-09-21T14:36:27;7.97;;;0.50;;
5014;SDS011;2526;51.060;4.228;2022-09-21T14:39:00;8.80;;;0.40;;
5014;SDS011;2526;51.060;4.228;2022-09-21T14:41:31;5.00;;;0.40;;
5014;SDS011;2526;51.060;4.228;2022-09-21T14:43:58;2.78;;;0.60;;
5014;SDS011;2526;51.060;4.228;2022-09-21T14:51:21;3.88;;;0.52;;
5014;SDS011;2526;51.060;4.228;2022-09-21T15:04:07;7.10;;;0.55;;
5014;SDS011;2526;51.060;4.228;2022-09-21T15:07:06;2.40;;;0.63;;
5014;SDS011;2526;51.060;4.228;2022-09-21T15:09:56;1.73;;;0.82;;
5014;SDS011;2526;51.060;4.228;2022-09-21T15:12:50;4.68;;;0.65;;
5014;SDS011;2526;51.060;4.228;2022-09-21T15:15:41;4.15;;;0.73;;
5014;SDS011;2526;51.060;4.228;2022-09-21T15:18:15;1.23;;;0.50;;
5014;SDS011;2526;51.060;4.228;2022-09-21T15:20:44;1.63;;;0.65;;
5014;SDS011;2526;51.060;4.228;2022-09-21T15:23:16;4.00;;;0.40;;
5014;SDS011;2526;51.060;4.228;2022-09-21T15:25:41;3.63;;;0.65;;
5014;SDS011;2526;51.060;4.228;2022-09-21T15:28:17;0.32;;;0.32;;
5014;SDS011;2526;51.060;4.228;2022-09-21T15:30:42;2.28;;;0.57;;
5014;SDS011;2526;51.060;4.228;2022-09-21T15:33:11;1.35;;;0.32;;
5014;SDS011;2526;51.060;4.228;2022-09-21T15:35:38;3.15;;;0.57;;
5014;SDS011;2526;51.060;4.228;2022-09-21T15:38:23;1.60;;;0.40;;
5014;SDS011;2526;51.060;4.228;2022-09-21T15:40:49;0.63;;;0.45;;
5014;SDS011;2526;51.060;4.228;2022-09-21T15:43:16;4.47;;;0.68;;
5014;SDS011;2526;51.060;4.228;2022-09-21T15:48:28;0.50;;;0.20;;
5014;SDS011;2526;51.060;4.228;2022-09-21T15:51:03;2.65;;;0.77;;
5014;SDS011;2526;51.060;4.228;2022-09-21T15:56:28;0.52;;;0.35;;
5014;SDS011;2526;51.060;4.228;2022-09-21T15:59:00;0.40;;;0.25;;
5014;SDS011;2526;51.060;4.228;2022-09-21T16:01:53;0.80;;;0.55;;
5014;SDS011;2526;51.060;4.228;2022-09-21T16:04:20;6.93;;;1.40;;
5014;SDS011;2526;51.060;4.228;2022-09-21T16:06:56;0.95;;;0.45;;
5014;SDS011;2526;51.060;4.228;2022-09-21T16:11:48;1.52;;;0.90;;
5014;SDS011;2526;51.060;4.228;2022-09-21T16:14:14;1.27;;;0.38;;
5014;SDS011;2526;51.060;4.228;2022-09-21T16:19:43;2.13;;;0.95;;
5014;SDS011;2526;51.060;4.228;2022-09-21T16:22:12;5.93;;;0.77;;
5014;SDS011;2526;51.060;4.228;2022-09-21T16:24:45;0.68;;;0.52;;
5014;SDS011;2526;51.060;4.228;2022-09-21T16:27:18;1.70;;;0.50;;
5014;SDS011;2526;51.060;4.228;2022-09-21T16:29:44;12.80;;;1.30;;
5014;SDS011;2526;51.060;4.228;2022-09-21T16:34:42;1.20;;;0.60;;
5014;SDS011;2526;51.060;4.228;2022-09-21T16:40:01;1.30;;;0.77;;
5014;SDS011;2526;51.060;4.228;2022-09-21T16:42:27;4.05;;;1.33;;
5014;SDS011;2526;51.060;4.228;2022-09-21T16:44:57;1.33;;;0.68;;
5014;SDS011;2526;51.060;4.228;2022-09-21T16:47:24;0.55;;;0.50;;
5014;SDS011;2526;51.060;4.228;2022-09-21T16:49:50;5.47;;;0.77;;
5014;SDS011;2526;51.060;4.228;2022-09-21T16:52:23;1.33;;;0.32;;
5014;SDS011;2526;51.060;4.228;2022-09-21T16:54:49;1.17;;;0.57;;
5014;SDS011;2526;51.060;4.228;2022-09-21T16:57:15;0.93;;;0.43;;
5014;SDS011;2526;51.060;4.228;2022-09-21T16:59:41;0.52;;;0.38;;
5014;SDS011;2526;51.060;4.228;2022-09-21T17:02:08;0.38;;;0.30;;
5014;SDS011;2526;51.060;4.228;2022-09-21T17:04:34;1.95;;;0.85;;
5014;SDS011;2526;51.060;4.228;2022-09-21T17:07:00;4.22;;;1.23;;
5014;SDS011;2526;51.060;4.228;2022-09-21T17:09:31;12.20;;;2.00;;
5014;SDS011;2526;51.060;4.228;2022-09-21T17:11:58;1.25;;;0.63;;
5014;SDS011;2526;51.060;4.228;2022-09-21T17:14:27;2.53;;;1.02;;
5014;SDS011;2526;51.060;4.228;2022-09-21T17:16:55;1.55;;;0.22;;
5014;SDS011;2526;51.060;4.228;2022-09-21T17:19:21;3.67;;;1.20;;
5014;SDS011;2526;51.060;4.228;2022-09-21T17:21:47;6.68;;;0.57;;
5014;SDS011;2526;51.060;4.228;2022-09-21T17:24:13;1.10;;;0.50;;
5014;SDS011;2526;51.060;4.228;2022-09-21T17:26:39;0.88;;;0.43;;
5014;SDS011;2526;51.060;4.228;2022-09-21T17:29:16;2.60;;;0.85;;
5014;SDS011;2526;51.060;4.228;2022-09-21T17:31:44;17.90;;;2.50;;
5014;SDS011;2526;51.060;4.228;2022-09-21T17:34:10;4.07;;;1.52;;
5014;SDS011;2526;51.060;4.228;2022-09-21T17:36:39;8.38;;;1.55;;
5014;SDS011;2526;51.060;4.228;2022-09-21T17:39:05;5.90;;;1.33;;
5014;SDS011;2526;51.060;4.228;2022-09-21T17:41:37;0.75;;;0.65;;
5014;SDS011;2526;51.060;4.228;2022-09-21T17:44:06;6.47;;;1.52;;
5014;SDS011;2526;51.060;4.228;2022-09-21T17:49:06;0.55;;;0.50;;
5014;SDS011;2526;51.060;4.228;2022-09-21T17:51:32;1.05;;;0.57;;
5014;SDS011;2526;51.060;4.228;2022-09-21T17:54:16;5.47;;;0.88;;
5014;SDS011;2526;51.060;4.228;2022-09-21T17:57:02;0.60;;;0.57;;
5014;SDS011;2526;51.060;4.228;2022-09-21T17:59:31;3.75;;;1.98;;
5014;SDS011;2526;51.060;4.228;2022-09-21T18:01:57;4.53;;;1.05;;
5014;SDS011;2526;51.060;4.228;2022-09-21T18:04:28;1.20;;;1.00;;
5014;SDS011;2526;51.060;4.228;2022-09-21T18:06:54;3.17;;;1.50;;
5014;SDS011;2526;51.060;4.228;2022-09-21T18:09:20;4.32;;;0.88;;
5014;SDS011;2526;51.060;4.228;2022-09-21T18:14:31;9.70;;;1.30;;
5014;SDS011;2526;51.060;4.228;2022-09-21T18:17:12;4.78;;;1.05;;
5014;SDS011;2526;51.060;4.228;2022-09-21T18:24:37;0.98;;;0.60;;
5014;SDS011;2526;51.060;4.228;2022-09-21T18:27:03;1.23;;;1.13;;
5014;SDS011;2526;51.060;4.228;2022-09-21T18:29:30;2.60;;;0.90;;
5014;SDS011;2526;51.060;4.228;2022-09-21T18:32:12;7.30;;;0.70;;
5014;SDS011;2526;51.060;4.228;2022-09-21T18:40:13;1.73;;;1.25;;
5014;SDS011;2526;51.060;4.228;2022-09-21T18:48:30;4.80;;;1.48;;
5014;SDS011;2526;51.060;4.228;2022-09-21T18:53:11;3.70;;;1.30;;
5014;SDS011;2526;51.060;4.228;2022-09-21T18:55:39;3.90;;;1.27;;
5014;SDS011;2526;51.060;4.228;2022-09-21T18:58:05;6.05;;;0.98;;
5014;SDS011;2526;51.060;4.228;2022-09-21T19:00:31;2.95;;;1.60;;
5014;SDS011;2526;51.060;4.228;2022-09-21T19:02:59;1.60;;;1.33;;
5014;SDS011;2526;51.060;4.228;2022-09-21T19:05:24;2.80;;;1.30;;